Promised Land, New York
Current Conditions -  °F | °C
As of 1:56 PM on Sunday 23 Nov 2014 (Local Time) from KGON Reporting Station
Haze Haze  
Wind Chill: 52°   Ceiling: Unl
Heat Index: 52°   Visibility: 6mi
Dew Point: 35°   Wind: 7mph
Humidity: 53%   Direction: 220°SW
Pressure: 30.14"   Gusts: NA
Location:  40.9764°N, 72.1316°W
Report Text: KGON 231856Z 22006KT 6SM HZ CLR 11/02 A3014 RMK AO2 SLP206 T01110017
Loading
Personal Weather Stations






























Interactive Weather Map New forecast layout! Learn more

10-Day Weather Forecast

Advertisements
Track Severe Weather on mobile